sensor_id;sensor_type;location;lat;lon;timestamp;temperature;humidity
3690;DHT22;1861;50.240;8.596;2023-05-02T00:00:07;14.70;99.50
3690;DHT22;1861;50.240;8.596;2023-05-02T00:02:35;14.80;99.60
3690;DHT22;1861;50.240;8.596;2023-05-02T00:05:04;14.70;99.50
3690;DHT22;1861;50.240;8.596;2023-05-02T00:07:32;14.70;99.60
3690;DHT22;1861;50.240;8.596;2023-05-02T00:10:02;14.80;99.70
3690;DHT22;1861;50.240;8.596;2023-05-02T00:12:31;14.80;99.50
3690;DHT22;1861;50.240;8.596;2023-05-02T00:15:00;14.80;99.60
3690;DHT22;1861;50.240;8.596;2023-05-02T00:17:28;14.80;99.50
3690;DHT22;1861;50.240;8.596;2023-05-02T00:19:57;14.80;99.40
3690;DHT22;1861;50.240;8.596;2023-05-02T00:22:26;14.80;99.50
3690;DHT22;1861;50.240;8.596;2023-05-02T00:24:55;14.70;99.50
3690;DHT22;1861;50.240;8.596;2023-05-02T00:27:25;14.70;99.50
3690;DHT22;1861;50.240;8.596;2023-05-02T00:29:53;14.70;99.30
3690;DHT22;1861;50.240;8.596;2023-05-02T00:32:21;14.70;99.40
3690;DHT22;1861;50.240;8.596;2023-05-02T00:34:49;14.70;99.40
3690;DHT22;1861;50.240;8.596;2023-05-02T00:37:18;14.60;99.30
3690;DHT22;1861;50.240;8.596;2023-05-02T00:39:46;14.70;99.40
3690;DHT22;1861;50.240;8.596;2023-05-02T00:42:14;14.70;99.40
3690;DHT22;1861;50.240;8.596;2023-05-02T00:44:43;14.70;99.30
3690;DHT22;1861;50.240;8.596;2023-05-02T00:47:13;14.60;99.40
3690;DHT22;1861;50.240;8.596;2023-05-02T00:49:41;14.70;99.50
3690;DHT22;1861;50.240;8.596;2023-05-02T00:52:09;14.70;99.50
3690;DHT22;1861;50.240;8.596;2023-05-02T00:54:38;14.70;99.60
3690;DHT22;1861;50.240;8.596;2023-05-02T00:57:06;14.70;99.50
3690;DHT22;1861;50.240;8.596;2023-05-02T00:59:35;14.60;99.50
3690;DHT22;1861;50.240;8.596;2023-05-02T01:02:13;14.60;99.60
3690;DHT22;1861;50.240;8.596;2023-05-02T01:04:56;14.60;99.70
3690;DHT22;1861;50.240;8.596;2023-05-02T01:07:50;14.60;99.70
3690;DHT22;1861;50.240;8.596;2023-05-02T01:10:27;14.60;99.80
3690;DHT22;1861;50.240;8.596;2023-05-02T01:13:01;14.60;99.80
3690;DHT22;1861;50.240;8.596;2023-05-02T01:15:32;14.60;99.90
3690;DHT22;1861;50.240;8.596;2023-05-02T01:18:04;14.60;99.90
3690;DHT22;1861;50.240;8.596;2023-05-02T01:20:36;14.50;99.90
3690;DHT22;1861;50.240;8.596;2023-05-02T01:23:15;14.50;99.90
3690;DHT22;1861;50.240;8.596;2023-05-02T01:26:02;14.50;99.90
3690;DHT22;1861;50.240;8.596;2023-05-02T01:28:51;14.50;99.90
3690;DHT22;1861;50.240;8.596;2023-05-02T01:31:21;14.50;99.90
3690;DHT22;1861;50.240;8.596;2023-05-02T01:33:51;14.50;99.90
3690;DHT22;1861;50.240;8.596;2023-05-02T01:36:22;14.50;99.90
3690;DHT22;1861;50.240;8.596;2023-05-02T01:38:54;14.60;99.90
3690;DHT22;1861;50.240;8.596;2023-05-02T01:41:25;14.60;99.90
3690;DHT22;1861;50.240;8.596;2023-05-02T01:43:57;14.50;99.90
3690;DHT22;1861;50.240;8.596;2023-05-02T01:46:28;14.50;99.90
3690;DHT22;1861;50.240;8.596;2023-05-02T01:48:59;14.50;99.90
3690;DHT22;1861;50.240;8.596;2023-05-02T01:51:31;14.50;99.90
3690;DHT22;1861;50.240;8.596;2023-05-02T01:54:03;14.50;99.90
3690;DHT22;1861;50.240;8.596;2023-05-02T01:56:34;14.60;99.90
3690;DHT22;1861;50.240;8.596;2023-05-02T01:59:05;14.60;99.90
3690;DHT22;1861;50.240;8.596;2023-05-02T02:01:35;14.50;99.90
3690;DHT22;1861;50.240;8.596;2023-05-02T02:04:05;14.50;99.90
3690;DHT22;1861;50.240;8.596;2023-05-02T02:06:35;14.50;99.90
3690;DHT22;1861;50.240;8.596;2023-05-02T02:09:04;14.50;99.90
3690;DHT22;1861;50.240;8.596;2023-05-02T02:11:34;14.50;99.90
3690;DHT22;1861;50.240;8.596;2023-05-02T02:14:06;14.50;99.90
3690;DHT22;1861;50.240;8.596;2023-05-02T02:16:40;14.50;99.90
3690;DHT22;1861;50.240;8.596;2023-05-02T02:19:12;14.50;99.90
3690;DHT22;1861;50.240;8.596;2023-05-02T02:21:42;14.40;99.90
3690;DHT22;1861;50.240;8.596;2023-05-02T02:24:11;14.40;99.90
3690;DHT22;1861;50.240;8.596;2023-05-02T02:26:40;14.40;99.90
3690;DHT22;1861;50.240;8.596;2023-05-02T02:29:09;14.40;99.90
3690;DHT22;1861;50.240;8.596;2023-05-02T02:31:39;14.40;99.90
3690;DHT22;1861;50.240;8.596;2023-05-02T02:34:07;14.30;99.90
3690;DHT22;1861;50.240;8.596;2023-05-02T02:36:40;14.30;99.90
3690;DHT22;1861;50.240;8.596;2023-05-02T02:39:20;14.30;99.90
3690;DHT22;1861;50.240;8.596;2023-05-02T02:41:59;14.30;99.90
3690;DHT22;1861;50.240;8.596;2023-05-02T02:44:42;14.30;99.90
3690;DHT22;1861;50.240;8.596;2023-05-02T02:47:14;14.30;99.90
3690;DHT22;1861;50.240;8.596;2023-05-02T02:49:47;14.20;99.90
3690;DHT22;1861;50.240;8.596;2023-05-02T02:52:21;14.20;99.90
3690;DHT22;1861;50.240;8.596;2023-05-02T02:54:55;14.20;99.90
3690;DHT22;1861;50.240;8.596;2023-05-02T02:57:32;14.20;99.90
3690;DHT22;1861;50.240;8.596;2023-05-02T03:00:10;14.20;99.90
3690;DHT22;1861;50.240;8.596;2023-05-02T03:02:41;14.20;99.90
3690;DHT22;1861;50.240;8.596;2023-05-02T03:05:10;14.20;99.90
3690;DHT22;1861;50.240;8.596;2023-05-02T03:07:38;14.20;99.90
3690;DHT22;1861;50.240;8.596;2023-05-02T03:10:08;14.20;99.90
3690;DHT22;1861;50.240;8.596;2023-05-02T03:12:38;14.20;99.90
3690;DHT22;1861;50.240;8.596;2023-05-02T03:15:27;14.20;99.90
3690;DHT22;1861;50.240;8.596;2023-05-02T03:17:59;14.20;99.90
3690;DHT22;1861;50.240;8.596;2023-05-02T03:20:28;14.20;99.90
3690;DHT22;1861;50.240;8.596;2023-05-02T03:22:56;14.20;99.90
3690;DHT22;1861;50.240;8.596;2023-05-02T03:25:24;14.20;99.90
3690;DHT22;1861;50.240;8.596;2023-05-02T03:27:52;14.20;99.90
3690;DHT22;1861;50.240;8.596;2023-05-02T03:30:22;14.20;99.90
3690;DHT22;1861;50.240;8.596;2023-05-02T03:32:50;14.10;99.90
3690;DHT22;1861;50.240;8.596;2023-05-02T03:35:18;14.10;99.90
3690;DHT22;1861;50.240;8.596;2023-05-02T03:37:48;14.10;99.90
3690;DHT22;1861;50.240;8.596;2023-05-02T03:40:16;14.10;99.90
3690;DHT22;1861;50.240;8.596;2023-05-02T03:42:47;14.10;99.90
3690;DHT22;1861;50.240;8.596;2023-05-02T03:45:24;14.10;99.90
3690;DHT22;1861;50.240;8.596;2023-05-02T03:47:52;14.10;99.90
3690;DHT22;1861;50.240;8.596;2023-05-02T03:50:21;14.10;99.90
3690;DHT22;1861;50.240;8.596;2023-05-02T03:52:51;14.00;99.90
3690;DHT22;1861;50.240;8.596;2023-05-02T03:55:27;14.00;99.90
3690;DHT22;1861;50.240;8.596;2023-05-02T03:57:56;14.00;99.90
3690;DHT22;1861;50.240;8.596;2023-05-02T04:00:25;14.00;99.90
3690;DHT22;1861;50.240;8.596;2023-05-02T04:03:00;14.00;99.90
3690;DHT22;1861;50.240;8.596;2023-05-02T04:05:29;14.00;99.90
3690;DHT22;1861;50.240;8.596;2023-05-02T04:07:57;14.00;99.90
3690;DHT22;1861;50.240;8.596;2023-05-02T04:10:25;14.00;99.90
3690;DHT22;1861;50.240;8.596;2023-05-02T04:12:57;14.00;99.90
3690;DHT22;1861;50.240;8.596;2023-05-02T04:15:26;13.90;99.90
3690;DHT22;1861;50.240;8.596;2023-05-02T04:17:56;13.90;99.90
3690;DHT22;1861;50.240;8.596;2023-05-02T04:20:25;14.00;99.90
3690;DHT22;1861;50.240;8.596;2023-05-02T04:22:54;14.00;99.90
3690;DHT22;1861;50.240;8.596;2023-05-02T04:25:22;14.00;99.90
3690;DHT22;1861;50.240;8.596;2023-05-02T04:27:53;14.00;99.90
3690;DHT22;1861;50.240;8.596;2023-05-02T04:30:22;14.00;99.90
3690;DHT22;1861;50.240;8.596;2023-05-02T04:33:01;14.00;99.90
3690;DHT22;1861;50.240;8.596;2023-05-02T04:35:32;13.90;99.90
3690;DHT22;1861;50.240;8.596;2023-05-02T04:38:02;13.90;99.90
3690;DHT22;1861;50.240;8.596;2023-05-02T04:40:31;13.90;99.90
3690;DHT22;1861;50.240;8.596;2023-05-02T04:43:03;14.00;99.90
3690;DHT22;1861;50.240;8.596;2023-05-02T04:45:39;14.00;99.90
3690;DHT22;1861;50.240;8.596;2023-05-02T04:48:15;14.00;99.90
3690;DHT22;1861;50.240;8.596;2023-05-02T04:50:44;14.00;99.90
3690;DHT22;1861;50.240;8.596;2023-05-02T04:53:12;13.90;99.90
3690;DHT22;1861;50.240;8.596;2023-05-02T04:55:41;13.90;99.90
3690;DHT22;1861;50.240;8.596;2023-05-02T04:58:09;13.90;99.90
3690;DHT22;1861;50.240;8.596;2023-05-02T05:00:39;13.90;99.90
3690;DHT22;1861;50.240;8.596;2023-05-02T05:03:07;13.90;99.90
3690;DHT22;1861;50.240;8.596;2023-05-02T05:05:37;13.90;99.90
3690;DHT22;1861;50.240;8.596;2023-05-02T05:08:08;13.90;99.90
3690;DHT22;1861;50.240;8.596;2023-05-02T05:10:37;13.90;99.90
3690;DHT22;1861;50.240;8.596;2023-05-02T05:13:07;13.90;99.90
3690;DHT22;1861;50.240;8.596;2023-05-02T05:15:35;13.90;99.90
3690;DHT22;1861;50.240;8.596;2023-05-02T05:18:04;13.90;99.90
3690;DHT22;1861;50.240;8.596;2023-05-02T05:20:32;13.90;99.90
3690;DHT22;1861;50.240;8.596;2023-05-02T05:23:03;13.90;99.90
3690;DHT22;1861;50.240;8.596;2023-05-02T05:25:31;13.90;99.90
3690;DHT22;1861;50.240;8.596;2023-05-02T05:28:00;13.90;99.90
3690;DHT22;1861;50.240;8.596;2023-05-02T05:30:30;13.90;99.90
3690;DHT22;1861;50.240;8.596;2023-05-02T05:32:59;13.90;99.90
3690;DHT22;1861;50.240;8.596;2023-05-02T05:35:28;13.90;99.90
3690;DHT22;1861;50.240;8.596;2023-05-02T05:37:57;13.90;99.90
3690;DHT22;1861;50.240;8.596;2023-05-02T05:40:27;13.90;99.90
3690;DHT22;1861;50.240;8.596;2023-05-02T05:42:57;13.90;99.90
3690;DHT22;1861;50.240;8.596;2023-05-02T05:45:30;13.90;99.90
3690;DHT22;1861;50.240;8.596;2023-05-02T05:47:58;13.90;99.90
3690;DHT22;1861;50.240;8.596;2023-05-02T05:50:29;13.90;99.90
3690;DHT22;1861;50.240;8.596;2023-05-02T05:52:57;13.90;99.90
3690;DHT22;1861;50.240;8.596;2023-05-02T05:55:27;13.90;99.90
3690;DHT22;1861;50.240;8.596;2023-05-02T05:57:56;13.90;99.90
3690;DHT22;1861;50.240;8.596;2023-05-02T06:00:24;13.90;99.90
3690;DHT22;1861;50.240;8.596;2023-05-02T06:02:53;13.90;99.90
3690;DHT22;1861;50.240;8.596;2023-05-02T06:05:26;13.90;99.90
3690;DHT22;1861;50.240;8.596;2023-05-02T06:07:55;13.90;99.90
3690;DHT22;1861;50.240;8.596;2023-05-02T06:10:23;14.00;99.90
3690;DHT22;1861;50.240;8.596;2023-05-02T06:12:53;13.90;99.90
3690;DHT22;1861;50.240;8.596;2023-05-02T06:15:25;14.00;99.90
3690;DHT22;1861;50.240;8.596;2023-05-02T06:17:54;14.00;99.90
3690;DHT22;1861;50.240;8.596;2023-05-02T06:20:22;14.00;99.90
3690;DHT22;1861;50.240;8.596;2023-05-02T06:22:50;14.10;99.90
3690;DHT22;1861;50.240;8.596;2023-05-02T06:25:18;14.00;99.90
3690;DHT22;1861;50.240;8.596;2023-05-02T06:27:46;14.10;99.90
3690;DHT22;1861;50.240;8.596;2023-05-02T06:30:16;14.10;99.90
3690;DHT22;1861;50.240;8.596;2023-05-02T06:32:44;14.20;99.90
3690;DHT22;1861;50.240;8.596;2023-05-02T06:35:12;14.20;99.90
3690;DHT22;1861;50.240;8.596;2023-05-02T06:37:40;14.20;99.90
3690;DHT22;1861;50.240;8.596;2023-05-02T06:40:09;14.30;99.90
3690;DHT22;1861;50.240;8.596;2023-05-02T06:42:39;14.40;99.90
3690;DHT22;1861;50.240;8.596;2023-05-02T06:45:07;14.40;99.90
3690;DHT22;1861;50.240;8.596;2023-05-02T06:47:37;14.40;99.90
3690;DHT22;1861;50.240;8.596;2023-05-02T06:50:06;14.50;99.90
3690;DHT22;1861;50.240;8.596;2023-05-02T06:52:34;14.50;99.90
3690;DHT22;1861;50.240;8.596;2023-05-02T06:55:02;14.50;99.90
3690;DHT22;1861;50.240;8.596;2023-05-02T06:57:31;14.50;99.90
3690;DHT22;1861;50.240;8.596;2023-05-02T06:59:59;14.40;99.90
3690;DHT22;1861;50.240;8.596;2023-05-02T07:02:28;14.40;99.90
3690;DHT22;1861;50.240;8.596;2023-05-02T07:04:57;14.40;99.90
3690;DHT22;1861;50.240;8.596;2023-05-02T07:07:25;14.40;99.90
3690;DHT22;1861;50.240;8.596;2023-05-02T07:09:53;14.40;99.90
3690;DHT22;1861;50.240;8.596;2023-05-02T07:12:22;14.40;99.90
3690;DHT22;1861;50.240;8.596;2023-05-02T07:14:50;14.40;99.90
3690;DHT22;1861;50.240;8.596;2023-05-02T07:17:18;14.40;99.90
3690;DHT22;1861;50.240;8.596;2023-05-02T07:19:46;14.40;99.90
3690;DHT22;1861;50.240;8.596;2023-05-02T07:22:16;14.40;99.90
3690;DHT22;1861;50.240;8.596;2023-05-02T07:24:44;14.40;99.90
3690;DHT22;1861;50.240;8.596;2023-05-02T07:27:12;14.30;99.90
3690;DHT22;1861;50.240;8.596;2023-05-02T07:29:40;14.30;99.90
3690;DHT22;1861;50.240;8.596;2023-05-02T07:32:09;14.30;99.90
3690;DHT22;1861;50.240;8.596;2023-05-02T07:34:37;14.20;99.90
3690;DHT22;1861;50.240;8.596;2023-05-02T07:37:05;14.30;99.90
3690;DHT22;1861;50.240;8.596;2023-05-02T07:39:35;14.30;99.90
3690;DHT22;1861;50.240;8.596;2023-05-02T07:42:03;14.30;99.90
3690;DHT22;1861;50.240;8.596;2023-05-02T07:44:32;14.30;99.90
3690;DHT22;1861;50.240;8.596;2023-05-02T07:47:00;14.30;99.90
3690;DHT22;1861;50.240;8.596;2023-05-02T07:49:29;14.30;99.90
3690;DHT22;1861;50.240;8.596;2023-05-02T07:51:57;14.30;99.90
3690;DHT22;1861;50.240;8.596;2023-05-02T07:54:25;14.40;99.90
3690;DHT22;1861;50.240;8.596;2023-05-02T07:56:54;14.40;99.90
3690;DHT22;1861;50.240;8.596;2023-05-02T07:59:24;14.40;99.90
3690;DHT22;1861;50.240;8.596;2023-05-02T08:01:53;14.50;99.90
3690;DHT22;1861;50.240;8.596;2023-05-02T08:04:21;14.50;99.90
3690;DHT22;1861;50.240;8.596;2023-05-02T08:06:49;14.50;99.90
3690;DHT22;1861;50.240;8.596;2023-05-02T08:09:18;14.50;99.90
3690;DHT22;1861;50.240;8.596;2023-05-02T08:11:46;14.60;99.90
3690;DHT22;1861;50.240;8.596;2023-05-02T08:14:15;14.60;99.90
3690;DHT22;1861;50.240;8.596;2023-05-02T08:16:43;14.60;99.90
3690;DHT22;1861;50.240;8.596;2023-05-02T08:19:12;14.60;99.90
3690;DHT22;1861;50.240;8.596;2023-05-02T08:21:41;14.60;99.90
3690;DHT22;1861;50.240;8.596;2023-05-02T08:24:09;14.60;99.90
3690;DHT22;1861;50.240;8.596;2023-05-02T08:26:37;14.60;99.90
3690;DHT22;1861;50.240;8.596;2023-05-02T08:29:05;14.60;99.90
3690;DHT22;1861;50.240;8.596;2023-05-02T08:31:35;14.60;99.90
3690;DHT22;1861;50.240;8.596;2023-05-02T08:34:03;14.70;99.90
3690;DHT22;1861;50.240;8.596;2023-05-02T08:36:31;14.70;99.90
3690;DHT22;1861;50.240;8.596;2023-05-02T08:38:59;14.70;99.90
3690;DHT22;1861;50.240;8.596;2023-05-02T08:41:28;14.70;99.90
3690;DHT22;1861;50.240;8.596;2023-05-02T08:43:58;14.70;99.90
3690;DHT22;1861;50.240;8.596;2023-05-02T08:46:27;14.70;99.90
3690;DHT22;1861;50.240;8.596;2023-05-02T08:48:58;14.70;99.90
3690;DHT22;1861;50.240;8.596;2023-05-02T08:51:27;14.80;99.90
3690;DHT22;1861;50.240;8.596;2023-05-02T08:53:58;14.70;99.90
3690;DHT22;1861;50.240;8.596;2023-05-02T08:56:28;14.80;99.90
3690;DHT22;1861;50.240;8.596;2023-05-02T08:58:56;14.70;99.90
3690;DHT22;1861;50.240;8.596;2023-05-02T09:01:29;14.80;99.90
3690;DHT22;1861;50.240;8.596;2023-05-02T09:03:59;14.70;99.90
3690;DHT22;1861;50.240;8.596;2023-05-02T09:06:27;14.80;99.90
3690;DHT22;1861;50.240;8.596;2023-05-02T09:08:58;14.80;99.90
3690;DHT22;1861;50.240;8.596;2023-05-02T09:11:28;14.80;99.90
3690;DHT22;1861;50.240;8.596;2023-05-02T09:13:56;14.90;99.90
3690;DHT22;1861;50.240;8.596;2023-05-02T09:16:37;14.90;99.90
3690;DHT22;1861;50.240;8.596;2023-05-02T09:19:07;14.90;99.90
3690;DHT22;1861;50.240;8.596;2023-05-02T09:21:36;14.90;99.90
3690;DHT22;1861;50.240;8.596;2023-05-02T09:24:14;15.00;99.90
3690;DHT22;1861;50.240;8.596;2023-05-02T09:26:55;15.00;99.90
3690;DHT22;1861;50.240;8.596;2023-05-02T09:29:25;15.00;99.90
3690;DHT22;1861;50.240;8.596;2023-05-02T09:31:53;15.00;99.90
3690;DHT22;1861;50.240;8.596;2023-05-02T09:34:24;15.00;99.90
3690;DHT22;1861;50.240;8.596;2023-05-02T09:36:52;15.00;99.90
3690;DHT22;1861;50.240;8.596;2023-05-02T09:39:22;15.00;99.90
3690;DHT22;1861;50.240;8.596;2023-05-02T09:41:52;15.00;99.90
3690;DHT22;1861;50.240;8.596;2023-05-02T09:44:22;15.00;99.90
3690;DHT22;1861;50.240;8.596;2023-05-02T09:46:52;15.10;99.90
3690;DHT22;1861;50.240;8.596;2023-05-02T09:49:38;15.10;99.90
3690;DHT22;1861;50.240;8.596;2023-05-02T09:52:10;15.20;99.90
3690;DHT22;1861;50.240;8.596;2023-05-02T09:54:38;15.20;99.90
3690;DHT22;1861;50.240;8.596;2023-05-02T09:57:07;15.30;99.90
3690;DHT22;1861;50.240;8.596;2023-05-02T09:59:39;15.20;99.90
3690;DHT22;1861;50.240;8.596;2023-05-02T10:02:08;15.30;99.90
3690;DHT22;1861;50.240;8.596;2023-05-02T10:04:40;15.30;99.90
3690;DHT22;1861;50.240;8.596;2023-05-02T10:07:09;15.20;99.90
3690;DHT22;1861;50.240;8.596;2023-05-02T10:09:42;15.20;99.90
3690;DHT22;1861;50.240;8.596;2023-05-02T10:12:14;15.20;99.90
3690;DHT22;1861;50.240;8.596;2023-05-02T10:14:47;15.20;99.90
3690;DHT22;1861;50.240;8.596;2023-05-02T10:17:21;15.20;99.90
3690;DHT22;1861;50.240;8.596;2023-05-02T10:19:56;15.20;99.70
3690;DHT22;1861;50.240;8.596;2023-05-02T10:22:24;15.20;99.80
3690;DHT22;1861;50.240;8.596;2023-05-02T10:24:54;15.30;99.90
3690;DHT22;1861;50.240;8.596;2023-05-02T10:27:24;15.30;99.90
3690;DHT22;1861;50.240;8.596;2023-05-02T10:29:53;15.20;99.80
3690;DHT22;1861;50.240;8.596;2023-05-02T10:32:22;15.20;99.70
3690;DHT22;1861;50.240;8.596;2023-05-02T10:34:54;15.20;99.60
3690;DHT22;1861;50.240;8.596;2023-05-02T10:37:24;15.20;99.60
3690;DHT22;1861;50.240;8.596;2023-05-02T10:39:52;15.20;99.50
3690;DHT22;1861;50.240;8.596;2023-05-02T10:42:20;15.30;99.70
3690;DHT22;1861;50.240;8.596;2023-05-02T10:44:49;15.30;99.70
3690;DHT22;1861;50.240;8.596;2023-05-02T10:47:18;15.40;99.60
3690;DHT22;1861;50.240;8.596;2023-05-02T10:49:50;15.50;99.50
3690;DHT22;1861;50.240;8.596;2023-05-02T10:52:27;15.50;99.50
3690;DHT22;1861;50.240;8.596;2023-05-02T10:55:15;15.60;99.50
3690;DHT22;1861;50.240;8.596;2023-05-02T10:58:21;15.60;99.40
3690;DHT22;1861;50.240;8.596;2023-05-02T11:00:50;15.60;99.20
3690;DHT22;1861;50.240;8.596;2023-05-02T11:03:53;15.60;99.00
3690;DHT22;1861;50.240;8.596;2023-05-02T11:06:21;15.60;98.80
3690;DHT22;1861;50.240;8.596;2023-05-02T11:08:50;15.60;98.80
3690;DHT22;1861;50.240;8.596;2023-05-02T11:11:37;15.60;98.70
3690;DHT22;1861;50.240;8.596;2023-05-02T11:14:06;15.50;98.60
3690;DHT22;1861;50.240;8.596;2023-05-02T11:17:05;15.60;98.70
3690;DHT22;1861;50.240;8.596;2023-05-02T11:22:34;15.60;98.40
3690;DHT22;1861;50.240;8.596;2023-05-02T11:25:04;15.60;98.30
3690;DHT22;1861;50.240;8.596;2023-05-02T11:27:36;15.60;98.40
3690;DHT22;1861;50.240;8.596;2023-05-02T11:30:06;15.60;98.40
3690;DHT22;1861;50.240;8.596;2023-05-02T11:33:10;15.50;98.40
3690;DHT22;1861;50.240;8.596;2023-05-02T11:35:41;15.50;98.40
3690;DHT22;1861;50.240;8.596;2023-05-02T11:38:10;15.50;98.30
3690;DHT22;1861;50.240;8.596;2023-05-02T11:40:43;15.50;98.20
3690;DHT22;1861;50.240;8.596;2023-05-02T11:43:18;15.40;97.90
3690;DHT22;1861;50.240;8.596;2023-05-02T11:45:47;15.40;98.00
3690;DHT22;1861;50.240;8.596;2023-05-02T11:48:17;15.40;98.10
3690;DHT22;1861;50.240;8.596;2023-05-02T11:50:47;15.40;98.00
3690;DHT22;1861;50.240;8.596;2023-05-02T11:53:17;15.40;97.90
3690;DHT22;1861;50.240;8.596;2023-05-02T11:55:50;15.70;97.80
3690;DHT22;1861;50.240;8.596;2023-05-02T11:58:20;15.80;97.90
3690;DHT22;1861;50.240;8.596;2023-05-02T12:00:50;15.90;97.80
3690;DHT22;1861;50.240;8.596;2023-05-02T12:03:27;15.70;97.70
3690;DHT22;1861;50.240;8.596;2023-05-02T12:05:56;15.60;97.60
3690;DHT22;1861;50.240;8.596;2023-05-02T12:08:25;15.60;98.20
3690;DHT22;1861;50.240;8.596;2023-05-02T12:10:56;15.60;97.90
3690;DHT22;1861;50.240;8.596;2023-05-02T12:13:25;15.60;97.70
3690;DHT22;1861;50.240;8.596;2023-05-02T12:15:54;15.50;97.60
3690;DHT22;1861;50.240;8.596;2023-05-02T12:18:23;15.70;97.40
3690;DHT22;1861;50.240;8.596;2023-05-02T12:20:54;15.70;97.40
3690;DHT22;1861;50.240;8.596;2023-05-02T12:23:23;15.70;97.50
3690;DHT22;1861;50.240;8.596;2023-05-02T12:25:54;15.70;97.60
3690;DHT22;1861;50.240;8.596;2023-05-02T12:28:22;15.60;97.70
3690;DHT22;1861;50.240;8.596;2023-05-02T12:30:50;15.60;97.80
3690;DHT22;1861;50.240;8.596;2023-05-02T12:33:20;15.60;97.90
3690;DHT22;1861;50.240;8.596;2023-05-02T12:35:48;15.60;97.90
3690;DHT22;1861;50.240;8.596;2023-05-02T12:38:18;15.60;98.20
3690;DHT22;1861;50.240;8.596;2023-05-02T12:40:50;15.60;97.80
3690;DHT22;1861;50.240;8.596;2023-05-02T12:43:20;15.50;97.80
3690;DHT22;1861;50.240;8.596;2023-05-02T12:45:49;15.60;97.90
3690;DHT22;1861;50.240;8.596;2023-05-02T12:48:21;15.80;97.80
3690;DHT22;1861;50.240;8.596;2023-05-02T12:50:50;15.90;97.80
3690;DHT22;1861;50.240;8.596;2023-05-02T12:53:42;16.10;97.80
3690;DHT22;1861;50.240;8.596;2023-05-02T12:56:12;16.20;97.80
3690;DHT22;1861;50.240;8.596;2023-05-02T12:58:43;16.30;97.90
3690;DHT22;1861;50.240;8.596;2023-05-02T13:01:12;16.30;98.00
3690;DHT22;1861;50.240;8.596;2023-05-02T13:03:42;16.30;97.80
3690;DHT22;1861;50.240;8.596;2023-05-02T13:06:10;16.20;98.00
3690;DHT22;1861;50.240;8.596;2023-05-02T13:08:38;16.10;97.90
3690;DHT22;1861;50.240;8.596;2023-05-02T13:11:06;16.10;97.90
3690;DHT22;1861;50.240;8.596;2023-05-02T13:13:34;16.10;97.90
3690;DHT22;1861;50.240;8.596;2023-05-02T13:16:04;16.10;97.90
3690;DHT22;1861;50.240;8.596;2023-05-02T13:18:33;16.20;97.90
3690;DHT22;1861;50.240;8.596;2023-05-02T13:21:02;16.20;98.00
3690;DHT22;1861;50.240;8.596;2023-05-02T13:23:30;16.20;98.00
3690;DHT22;1861;50.240;8.596;2023-05-02T13:25:58;16.20;97.90
3690;DHT22;1861;50.240;8.596;2023-05-02T13:28:26;16.20;97.90
3690;DHT22;1861;50.240;8.596;2023-05-02T13:30:58;16.20;97.70
3690;DHT22;1861;50.240;8.596;2023-05-02T13:33:28;16.20;97.80
3690;DHT22;1861;50.240;8.596;2023-05-02T13:35:56;16.10;97.90
3690;DHT22;1861;50.240;8.596;2023-05-02T13:38:24;16.10;97.90
3690;DHT22;1861;50.240;8.596;2023-05-02T13:40:53;16.20;97.70
3690;DHT22;1861;50.240;8.596;2023-05-02T13:43:21;16.20;97.50
3690;DHT22;1861;50.240;8.596;2023-05-02T13:45:50;16.20;97.60
3690;DHT22;1861;50.240;8.596;2023-05-02T13:48:18;16.10;97.60
3690;DHT22;1861;50.240;8.596;2023-05-02T13:50:47;16.10;97.70
3690;DHT22;1861;50.240;8.596;2023-05-02T13:53:16;16.20;97.80
3690;DHT22;1861;50.240;8.596;2023-05-02T13:55:44;16.20;98.00
3690;DHT22;1861;50.240;8.596;2023-05-02T13:58:12;16.10;97.80
3690;DHT22;1861;50.240;8.596;2023-05-02T14:00:40;16.10;98.00
3690;DHT22;1861;50.240;8.596;2023-05-02T14:03:08;16.10;97.90
3690;DHT22;1861;50.240;8.596;2023-05-02T14:05:37;16.00;97.50
3690;DHT22;1861;50.240;8.596;2023-05-02T14:08:11;16.10;97.70
3690;DHT22;1861;50.240;8.596;2023-05-02T14:10:44;16.00;97.70
3690;DHT22;1861;50.240;8.596;2023-05-02T14:13:12;16.10;97.60
3690;DHT22;1861;50.240;8.596;2023-05-02T14:15:40;16.00;97.40
3690;DHT22;1861;50.240;8.596;2023-05-02T14:18:08;16.10;97.40
3690;DHT22;1861;50.240;8.596;2023-05-02T14:20:36;16.10;97.40
3690;DHT22;1861;50.240;8.596;2023-05-02T14:23:04;16.10;97.50
3690;DHT22;1861;50.240;8.596;2023-05-02T14:25:35;16.10;97.40
3690;DHT22;1861;50.240;8.596;2023-05-02T14:28:03;16.00;97.20
3690;DHT22;1861;50.240;8.596;2023-05-02T14:30:32;16.00;97.20
3690;DHT22;1861;50.240;8.596;2023-05-02T14:33:00;16.00;97.00
3690;DHT22;1861;50.240;8.596;2023-05-02T14:35:28;16.00;97.20
3690;DHT22;1861;50.240;8.596;2023-05-02T14:37:56;16.00;97.40
3690;DHT22;1861;50.240;8.596;2023-05-02T14:40:25;16.00;97.30
3690;DHT22;1861;50.240;8.596;2023-05-02T14:42:55;16.00;97.10
3690;DHT22;1861;50.240;8.596;2023-05-02T14:45:23;16.00;97.20
3690;DHT22;1861;50.240;8.596;2023-05-02T14:47:51;16.00;97.00
3690;DHT22;1861;50.240;8.596;2023-05-02T14:50:20;16.00;97.30
3690;DHT22;1861;50.240;8.596;2023-05-02T14:52:48;16.00;97.20
3690;DHT22;1861;50.240;8.596;2023-05-02T14:55:16;16.00;97.30
3690;DHT22;1861;50.240;8.596;2023-05-02T14:57:44;16.00;97.20
3690;DHT22;1861;50.240;8.596;2023-05-02T15:00:15;16.00;97.00
3690;DHT22;1861;50.240;8.596;2023-05-02T15:02:43;16.00;97.10
3690;DHT22;1861;50.240;8.596;2023-05-02T15:05:12;16.00;97.20
3690;DHT22;1861;50.240;8.596;2023-05-02T15:07:40;16.00;97.00
3690;DHT22;1861;50.240;8.596;2023-05-02T15:10:08;16.00;97.10
3690;DHT22;1861;50.240;8.596;2023-05-02T15:12:36;16.00;97.00
3690;DHT22;1861;50.240;8.596;2023-05-02T15:15:05;16.00;97.00
3690;DHT22;1861;50.240;8.596;2023-05-02T15:17:36;16.00;96.90
3690;DHT22;1861;50.240;8.596;2023-05-02T15:20:06;16.00;97.00
3690;DHT22;1861;50.240;8.596;2023-05-02T15:22:34;16.00;96.80
3690;DHT22;1861;50.240;8.596;2023-05-02T15:25:02;16.00;96.40
3690;DHT22;1861;50.240;8.596;2023-05-02T15:27:31;16.00;96.60
3690;DHT22;1861;50.240;8.596;2023-05-02T15:29:59;16.00;96.70
3690;DHT22;1861;50.240;8.596;2023-05-02T15:32:29;16.00;96.60
3690;DHT22;1861;50.240;8.596;2023-05-02T15:34:58;16.00;96.70
3690;DHT22;1861;50.240;8.596;2023-05-02T15:37:27;16.00;96.60
3690;DHT22;1861;50.240;8.596;2023-05-02T15:39:55;16.00;96.70
3690;DHT22;1861;50.240;8.596;2023-05-02T15:42:23;16.00;96.30
3690;DHT22;1861;50.240;8.596;2023-05-02T15:44:51;16.00;96.40
3690;DHT22;1861;50.240;8.596;2023-05-02T15:47:20;16.00;96.30
3690;DHT22;1861;50.240;8.596;2023-05-02T15:49:49;16.00;96.10
3690;DHT22;1861;50.240;8.596;2023-05-02T15:52:21;16.00;96.10
3690;DHT22;1861;50.240;8.596;2023-05-02T15:54:49;16.00;95.90
3690;DHT22;1861;50.240;8.596;2023-05-02T15:57:19;16.00;95.70
3690;DHT22;1861;50.240;8.596;2023-05-02T15:59:47;16.00;95.80
3690;DHT22;1861;50.240;8.596;2023-05-02T16:02:15;16.00;95.80
3690;DHT22;1861;50.240;8.596;2023-05-02T16:04:43;16.00;95.80
3690;DHT22;1861;50.240;8.596;2023-05-02T16:07:12;16.00;95.70
3690;DHT22;1861;50.240;8.596;2023-05-02T16:09:41;16.00;95.40
3690;DHT22;1861;50.240;8.596;2023-05-02T16:12:09;15.90;95.40
3690;DHT22;1861;50.240;8.596;2023-05-02T16:14:38;15.90;95.40
3690;DHT22;1861;50.240;8.596;2023-05-02T16:17:06;15.90;95.30
3690;DHT22;1861;50.240;8.596;2023-05-02T16:19:34;15.90;95.20
3690;DHT22;1861;50.240;8.596;2023-05-02T16:22:02;15.90;95.10
3690;DHT22;1861;50.240;8.596;2023-05-02T16:24:30;15.90;95.00